createdAt,value
2019-05-02T00:04:22.689Z,97848.33
2019-05-02T00:09:28.620Z,97844.97
2019-05-02T00:14:34.773Z,97845.64
2019-05-02T00:19:40.141Z,97835.87
2019-05-02T00:24:45.682Z,97832.20
2019-05-02T00:29:53.785Z,97828.49
2019-05-02T00:34:58.198Z,97820.78
2019-05-02T00:40:03.551Z,97819.10
2019-05-02T00:45:08.735Z,97816.41
2019-05-02T00:50:14.147Z,97803.95
2019-05-02T00:55:19.648Z,97800.42
2019-05-02T01:00:25.885Z,97800.23
2019-05-02T01:05:33.861Z,97798.56
2019-05-02T01:10:38.222Z,97794.84
2019-05-02T01:15:44.129Z,97790.29
2019-05-02T01:20:49.610Z,97786.59
2019-05-02T01:25:54.872Z,97779.66
2019-05-02T01:31:18.370Z,97776.64
2019-05-02T01:36:28.323Z,97771.45
2019-05-02T01:41:33.578Z,97771.28
2019-05-02T01:46:39.101Z,97767.90
2019-05-02T01:51:47.661Z,97757.19
2019-05-02T01:56:51.290Z,97756.68
2019-05-02T02:01:57.946Z,97757.17
2019-05-02T02:07:03.437Z,97756.48
2019-05-02T02:12:09.861Z,97761.31
2019-05-02T02:17:17.286Z,97752.91
2019-05-02T02:22:39.334Z,97746.00
2019-05-02T02:27:41.412Z,97747.34
2019-05-02T02:32:46.762Z,97745.13
2019-05-02T02:37:55.134Z,97740.78
2019-05-02T02:43:13.020Z,97743.46
2019-05-02T02:48:06.074Z,97743.48
2019-05-02T02:53:11.269Z,97736.77
2019-05-02T02:58:16.438Z,97737.61
2019-05-02T03:03:27.782Z,97736.92
2019-05-02T03:08:28.486Z,97738.95
2019-05-02T03:13:53.374Z,97735.91
2019-05-02T03:18:57.138Z,97728.83
2019-05-02T03:24:05.622Z,97725.78
2019-05-02T03:29:09.582Z,97723.73
2019-05-02T03:34:15.266Z,97728.75
2019-05-02T03:39:20.470Z,97729.09
2019-05-02T03:44:26.774Z,97725.38
2019-05-02T03:49:32.604Z,97722.50
2019-05-02T03:54:48.346Z,97720.41
2019-05-02T03:59:44.801Z,97720.50
2019-05-02T04:04:54.209Z,97724.05
2019-05-02T04:09:59.008Z,97718.47
2019-05-02T04:15:09.388Z,97727.62
2019-05-02T04:20:12.879Z,97733.17
2019-05-02T04:25:20.152Z,97733.70
2019-05-02T04:30:25.309Z,97734.16
2019-05-02T04:35:34.889Z,97725.77
2019-05-02T04:40:41.756Z,97727.47
2019-05-02T04:45:55.724Z,97724.84
2019-05-02T04:51:02.017Z,97729.08
2019-05-02T04:56:06.961Z,97730.94
2019-05-02T05:01:10.146Z,97732.67
2019-05-02T05:06:14.952Z,97726.33
2019-05-02T05:11:24.719Z,97732.77
2019-05-02T05:16:28.664Z,97730.26
2019-05-02T05:21:34.307Z,97730.02
2019-05-02T05:26:43.040Z,97726.75
2019-05-02T05:31:48.366Z,97735.88
2019-05-02T05:36:53.479Z,97740.80
2019-05-02T05:41:58.775Z,97743.38
2019-05-02T05:47:04.091Z,97751.45
2019-05-02T05:52:09.466Z,97747.33
2019-05-02T05:57:17.449Z,97739.09
2019-05-02T06:02:22.018Z,97746.17
2019-05-02T06:07:27.856Z,97743.17
2019-05-02T06:12:35.547Z,97734.59
2019-05-02T06:17:41.693Z,97734.45
2019-05-02T06:22:46.927Z,97728.56
2019-05-02T06:27:52.496Z,97729.23
2019-05-02T06:32:57.903Z,97724.20
2019-05-02T06:38:03.140Z,97725.70
2019-05-02T06:43:09.799Z,97722.67
2019-05-02T06:48:17.646Z,97718.30
2019-05-02T06:53:22.835Z,97719.98
2019-05-02T06:58:28.128Z,97713.27
2019-05-02T07:03:33.365Z,97711.70
2019-05-02T07:08:39.861Z,97694.53
2019-05-02T07:13:45.200Z,97704.44
2019-05-02T07:18:53.717Z,97699.69
2019-05-02T07:23:59.030Z,97703.34
2019-05-02T07:29:08.672Z,97693.73
2019-05-02T07:34:14.208Z,97684.66
2019-05-02T07:39:19.635Z,97697.45
2019-05-02T07:44:27.239Z,97687.97
2019-05-02T07:49:33.912Z,97684.86
2019-05-02T07:54:38.882Z,97691.45
2019-05-02T07:59:44.239Z,97685.75
2019-05-02T08:04:50.558Z,97687.36
2019-05-02T08:09:55.835Z,97689.89
2019-05-02T08:15:01.812Z,97687.07
2019-05-02T08:20:08.687Z,97690.83
2019-05-02T08:25:15.736Z,97679.77
2019-05-02T08:30:25.003Z,97678.46
2019-05-02T08:35:31.220Z,97670.98
2019-05-02T08:40:37.591Z,97678.33
2019-05-02T08:45:42.836Z,97667.81
2019-05-02T08:50:48.068Z,97684.18
2019-05-02T08:55:53.313Z,97683.03
2019-05-02T09:00:58.865Z,97673.27
2019-05-02T09:06:05.881Z,97671.14
2019-05-02T09:11:14.569Z,97673.22
2019-05-02T09:16:26.444Z,97654.97
2019-05-02T09:21:26.624Z,97658.84
2019-05-02T09:26:37.959Z,97643.41
2019-05-02T09:31:42.152Z,97652.47
2019-05-02T09:36:47.338Z,97648.00
2019-05-02T09:41:52.861Z,97633.17
2019-05-02T09:46:58.944Z,97631.42
2019-05-02T09:52:04.227Z,97623.06
2019-05-02T09:57:09.472Z,97624.41
2019-05-02T10:02:15.561Z,97622.45
2019-05-02T10:07:22.262Z,97627.91
2019-05-02T10:12:27.597Z,97615.13
2019-05-02T10:17:37.521Z,97611.59
2019-05-02T10:22:41.912Z,97616.91
2019-05-02T10:27:49.679Z,97605.89
2019-05-02T10:32:57.374Z,97599.73
2019-05-02T10:38:03.173Z,97600.25
2019-05-02T10:43:11.710Z,97592.98
2019-05-02T10:48:25.873Z,97597.06
2019-05-02T10:53:23.799Z,97588.11
2019-05-02T10:58:34.125Z,97588.89
2019-05-02T11:03:43.791Z,97581.22
2019-05-02T11:08:47.729Z,97586.33
2019-05-02T11:14:05.895Z,97589.16
2019-05-02T11:19:14.273Z,97584.94
2019-05-02T11:24:19.511Z,97573.46
2019-05-02T11:29:25.708Z,97586.80
2019-05-02T11:34:32.644Z,97583.84
2019-05-02T11:39:47.791Z,97573.95
2019-05-02T11:44:45.428Z,97571.95
2019-05-02T11:49:55.620Z,97561.44
2019-05-02T11:54:59.030Z,97564.59
2019-05-02T12:00:08.836Z,97557.60
2019-05-02T12:05:14.595Z,97564.55
2019-05-02T12:10:21.632Z,97567.81
2019-05-02T12:15:27.600Z,97564.47
2019-05-02T12:20:36.494Z,97560.30
2019-05-02T12:25:39.924Z,97553.05
2019-05-02T12:30:45.174Z,97546.63
2019-05-02T12:35:52.595Z,97541.13
2019-05-02T12:40:58.060Z,97538.39
2019-05-02T12:46:03.336Z,97539.05
2019-05-02T12:51:08.613Z,97541.08
2019-05-02T12:56:13.855Z,97540.80
2019-05-02T13:01:19.119Z,97538.75
2019-05-02T13:06:24.663Z,97533.70
2019-05-02T13:11:43.959Z,97538.77
2019-05-02T13:16:46.069Z,97531.01
2019-05-02T13:22:25.433Z,97518.65
2019-05-02T13:27:32.264Z,97521.23
2019-05-02T13:32:39.565Z,97523.63
2019-05-02T13:37:46.150Z,97513.86
2019-05-02T13:42:52.361Z,97517.30
2019-05-02T13:47:57.604Z,97503.66
2019-05-02T13:53:02.896Z,97507.91
2019-05-02T13:58:08.128Z,97499.28
2019-05-02T14:03:14.052Z,97498.60
2019-05-02T14:08:36.717Z,97497.08
2019-05-02T14:13:39.130Z,97493.09
2019-05-02T14:18:44.381Z,97494.45
2019-05-02T14:23:51.685Z,97488.93
2019-05-02T14:28:56.649Z,97483.84
2019-05-02T14:34:21.691Z,97462.05
2019-05-02T14:39:28.313Z,97485.03
2019-05-02T14:45:01.379Z,97466.09
2019-05-02T14:49:42.811Z,97469.84
2019-05-02T14:54:48.210Z,97461.39
2019-05-02T14:59:59.095Z,97468.21
2019-05-02T15:05:02.034Z,97465.55
2019-05-02T15:10:07.954Z,97447.63
2019-05-02T15:15:13.164Z,97443.52
2019-05-02T15:20:18.519Z,97455.14
2019-05-02T15:25:23.759Z,97450.91
2019-05-02T15:30:29.016Z,97453.14
2019-05-02T15:36:07.311Z,97447.16
2019-05-02T15:41:12.837Z,97449.16
2019-05-02T15:46:22.757Z,97443.34
2019-05-02T15:51:23.796Z,97430.50
2019-05-02T15:56:29.400Z,97416.38
2019-05-02T16:01:47.334Z,97420.17
2019-05-02T16:06:48.896Z,97420.19
2019-05-02T16:11:56.951Z,97423.33
2019-05-02T16:17:03.796Z,97416.80
2019-05-02T16:22:17.068Z,97410.58
2019-05-02T16:27:42.101Z,97403.10
2019-05-02T16:32:55.117Z,97407.67
2019-05-02T16:38:00.361Z,97392.31
2019-05-02T16:43:05.799Z,97398.50
2019-05-02T16:48:12.041Z,97391.39
2019-05-02T16:53:22.519Z,97392.48
2019-05-02T16:58:24.419Z,97385.35
2019-05-02T17:03:36.682Z,97387.20
2019-05-02T17:09:03.974Z,97385.46
2019-05-02T17:14:11.975Z,97382.69
2019-05-02T17:19:17.908Z,97389.02
2019-05-02T17:24:26.123Z,97387.28
2019-05-02T17:29:31.752Z,97392.98
2019-05-02T17:34:37.153Z,97387.64
2019-05-02T17:39:46.044Z,97400.82
2019-05-02T17:44:51.884Z,97402.30
2019-05-02T17:49:59.086Z,97390.39
2019-05-02T17:55:04.996Z,97393.56
2019-05-02T18:00:16.936Z,97390.06
2019-05-02T18:05:26.461Z,97385.88
2019-05-02T18:10:32.180Z,97392.14
2019-05-02T18:15:37.091Z,97387.08
2019-05-02T18:20:46.346Z,97383.57
2019-05-02T18:25:49.591Z,97385.43
2019-05-02T18:31:00.325Z,97381.91
2019-05-02T18:36:02.191Z,97384.91
2019-05-02T18:41:07.945Z,97391.57
2019-05-02T18:46:14.187Z,97390.41
2019-05-02T18:51:19.423Z,97393.42
2019-05-02T18:56:24.787Z,97387.42
2019-05-02T19:01:32.031Z,97399.18
2019-05-02T19:06:37.743Z,97397.09
2019-05-02T19:11:43.007Z,97395.11
2019-05-02T19:16:48.708Z,97394.58
2019-05-02T19:21:54.396Z,97392.57
2019-05-02T19:26:59.723Z,97391.30
2019-05-02T19:32:08.498Z,97390.03
2019-05-02T19:37:13.739Z,97382.28
2019-05-02T19:42:22.620Z,97385.45
2019-05-02T19:47:26.563Z,97382.36
2019-05-02T19:52:38.925Z,97383.67
2019-05-02T19:57:39.123Z,97393.48
2019-05-02T20:02:44.765Z,97398.30
2019-05-02T20:07:51.959Z,97388.25
2019-05-02T20:12:57.385Z,97395.17
2019-05-02T20:18:04.618Z,97402.02
2019-05-02T20:23:17.987Z,97400.94
2019-05-02T20:28:17.269Z,97396.74
2019-05-02T20:33:22.717Z,97405.39
2019-05-02T20:38:27.964Z,97400.36
2019-05-02T20:43:33.217Z,97398.09
2019-05-02T20:48:39.376Z,97392.26
2019-05-02T20:53:44.961Z,97395.02
2019-05-02T20:58:50.201Z,97396.77
2019-05-02T21:03:56.516Z,97398.00
2019-05-02T21:09:11.829Z,97400.09
2019-05-02T21:14:17.810Z,97407.63
2019-05-02T21:19:23.500Z,97405.30
2019-05-02T21:24:28.749Z,97403.19
2019-05-02T21:29:35.152Z,97410.45
2019-05-02T21:34:42.507Z,97423.08
2019-05-02T21:39:48.201Z,97431.09
2019-05-02T21:44:55.324Z,97432.96
2019-05-02T21:50:15.684Z,97444.66
2019-05-02T21:55:28.257Z,97448.31
2019-05-02T22:00:52.752Z,97446.58
2019-05-02T22:06:00.068Z,97433.11
2019-05-02T22:11:05.464Z,97428.47
2019-05-02T22:16:12.767Z,97427.81
2019-05-02T22:21:18.635Z,97436.92
2019-05-02T22:26:25.194Z,97446.75
2019-05-02T22:31:32.410Z,97443.63
2019-05-02T22:36:38.169Z,97445.27
2019-05-02T22:41:43.323Z,97446.34
2019-05-02T22:46:48.605Z,97440.90
2019-05-02T22:51:53.761Z,97441.91
2019-05-02T22:56:59.002Z,97445.27
2019-05-02T23:02:04.364Z,97448.72
2019-05-02T23:07:09.868Z,97450.13
2019-05-02T23:12:15.068Z,97456.22
2019-05-02T23:17:20.686Z,97462.63
2019-05-02T23:22:26.255Z,97462.00
2019-05-02T23:27:42.506Z,97457.27
2019-05-02T23:32:48.130Z,97457.39
2019-05-02T23:37:53.714Z,97461.15
2019-05-02T23:42:58.966Z,97460.52
2019-05-02T23:48:05.019Z,97464.56
2019-05-02T23:53:12.734Z,97468.41
2019-05-02T23:58:18.193Z,97477.19
